Terminal Aerodrome Forecast
Issued by NWS

Home | Current Version | Previous Version | Text Only | Print | Product List | Glossary On
Versions: 1 2 3 4 5 6 7 8 9 10 11 12 13 14 15 16 17 18 19 20 21 22 23 24 25 26
227
FTUS44 KLIX 072323
TAFMSY
TAF
KMSY 072323Z 0800/0824 06006KT P6SM OVC015
     FM081100 04010KT P6SM OVC010 PROB30 0812/0818 4SM -SHRA OVC003
     FM081900 02014G22KT P6SM BKN025
     FM082100 02015G25KT P6SM BKN040
     FM082300 02016G27KT P6SM SCT060=

USA.gov is the U.S. government's official web portal to all federal, state and local government web resources and services.